• Join FlightAware (Why Join?)
  • Login
  • US Flag GB Flag 
16:16 EDT


 

Airport Tracker/Info


-or-


 

Live Flight TrackerFlight Track Log ✈ SWA311 ✈ 11-Apr-2013 ✈ KHOU - KEWR

Flight Track Log - Related Links

Times and Time Zones

All times are in EDT time to prevent confusion due to time zone crossing. See the SWA311 flight status page for this flight to view local times or setup timezone preferences in your user account.

Time Position Orientation Groundspeed Altitude Reporting Facility
EDT Latitude Longitude Course Direction KTS MPH feet Rate Location/Type
18:54 29.6758 -95.2961 344° North 186 214 2,000  Level Houston Center
18:55 29.7331 -95.3014 355° North 211 243 5,200 2,760 Climbing Houston Center
18:55 29.7458 -95.3025 356° North 215 247 5,600 3,420 Climbing Houston Center
18:56 29.8189 -95.3078 356° North 261 300 9,700 3,000 Climbing Houston Center
18:57 29.8950 -95.3456 337° Northwest 297 342 11,900 3,240 Climbing Houston Center
18:58 30.0019 -95.3972 337° Northwest 343 395 16,400 3,660 Climbing Houston Center
18:59 30.0922 -95.4408 337° Northwest 349 402 19,500 2,820 Climbing Houston Center
19:00 30.1864 -95.4869 337° Northwest 361 415 22,300 2,220 Climbing Houston Center
19:01 30.2844 -95.5317 339° North 373 429 24,100 1,920 Climbing Houston Center
19:02 30.3839 -95.5806 337° Northwest 385 443 26,300 2,040 Climbing Houston Center
19:03 30.4875 -95.6297 338° Northwest 397 457 28,400 1,920 Climbing Houston Center
19:04 30.6161 -95.6947 336° Northwest 418 481 30,300 1,740 Climbing Houston Center
19:05 30.7231 -95.7522 335° Northwest 430 495 32,100 1,920 Climbing Houston Center
19:06 30.8317 -95.8097 336° Northwest 426 490 34,300 1,920 Climbing Houston Center
19:07 30.9344 -95.8667 335° Northwest 412 474 36,100 1,500 Climbing Houston Center
19:08 31.0414 -95.9225 336° Northwest 414 476 37,500 1,080 Climbing Houston Center
19:09 31.1719 -95.9800 339° North 421 484 38,400 660 Climbing Houston Center
19:10 31.2972 -96.0081 349° North 449 517 38,900 240 Climbing Houston Center
19:11 31.4208 -96.0372 349° North 452 520 39,000  Climbing Houston Center
19:12 31.5339 -96.0631 349° North 449 517 39,000  Level Fort Worth Center
19:13 31.6444 -96.0517 North 444 511 39,000  Level Fort Worth Center
19:14 31.7644 -95.9692 30° Northeast 462 532 39,000 240 Level Fort Worth Center
19:15 31.8783 -95.8892 31° Northeast 471 542 39,500 780 Climbing Fort Worth Center
19:16 32.0108 -95.7939 31° Northeast 492 566 40,600 720 Climbing Fort Worth Center
19:17 32.1144 -95.7208 31° Northeast 492 566 41,000 180 Climbing Fort Worth Center
19:18 32.2300 -95.6378 31° Northeast 492 566 41,000  Level Fort Worth Center
19:19 32.3481 -95.5567 30° Northeast 484 557 41,000  Level Fort Worth Center
19:20 32.4656 -95.4731 31° Northeast 484 557 41,000  Level Fort Worth Center
19:21 32.5811 -95.3892 31° Northeast 484 557 41,000  Level Fort Worth Center
19:22 32.6947 -95.3103 30° Northeast 484 557 41,000  Level Fort Worth Center
19:23 32.8206 -95.2183 32° Northeast 473 544 41,000  Level Fort Worth Center
19:24 32.9358 -95.1339 32° Northeast 473 544 41,000  Level Fort Worth Center
19:25 33.0514 -95.0514 31° Northeast 473 544 41,000  Level Fort Worth Center
19:26 33.1667 -94.9692 31° Northeast 478 550 41,000  Level Fort Worth Center
19:27 33.2839 -94.8864 31° Northeast 478 550 41,000  Level Fort Worth Center
19:28 33.3969 -94.8033 32° Northeast 478 550 41,000  Level Fort Worth Center
19:29 33.5122 -94.7203 31° Northeast 478 550 41,000  Level Fort Worth Center
19:30 33.6272 -94.6369 31° Northeast 478 550 41,000  Level Fort Worth Center
19:31 33.7422 -94.5508 32° Northeast 478 550 41,000  Level Fort Worth Center
19:32 33.8592 -94.4669 31° Northeast 483 556 41,000  Level Fort Worth Center
19:35 34.1367 -94.2619 31° Northeast 489 563 41,000  Level Memphis Center
19:36 34.2542 -94.1767 31° Northeast 484 557 41,000  Level Memphis Center
19:37 34.3694 -94.0889 32° Northeast 489 563 41,000  Level Memphis Center
19:38 34.4614 -94.0172 33° Northeast 489 563 41,000  Level Memphis Center
19:39 34.5839 -93.8889 41° Northeast 484 557 41,000  Level Memphis Center
19:40 34.6772 -93.7664 47° Northeast 484 557 41,000  Level Memphis Center
19:41 34.7719 -93.6489 46° Northeast 490 564 41,000  Level Memphis Center
19:42 34.8672 -93.5233 47° Northeast 490 564 41,000  Level Memphis Center
19:43 34.9600 -93.4003 47° Northeast 490 564 41,000  Level Memphis Center
19:44 35.0547 -93.2767 47° Northeast 490 564 41,000  Level Memphis Center
19:45 35.1383 -93.1731 45° Northeast 490 564 41,000  Level Memphis Center
19:46 35.2308 -93.0492 48° Northeast 485 558 41,000  Level Memphis Center
19:47 35.3250 -92.9325 45° Northeast 485 558 41,000  Level Memphis Center
19:48 35.4175 -92.8003 49° Northeast 492 566 41,000  Level Memphis Center
19:49 35.5200 -92.6631 47° Northeast 498 573 41,000  Level Memphis Center
19:50 35.6056 -92.5481 48° Northeast 504 580 41,000  Level Memphis Center
19:51 35.7017 -92.4225 47° Northeast 504 580 41,000  Level Memphis Center
19:52 35.7933 -92.2994 47° Northeast 498 573 41,000  Level Memphis Center
19:53 35.8847 -92.1736 48° Northeast 498 573 41,000  Level Memphis Center
19:54 35.9869 -92.0347 48° Northeast 498 573 41,000  Level Memphis Center
19:55 36.0822 -91.9056 48° Northeast 492 566 41,000  Level Memphis Center
19:56 36.1608 -91.7942 49° Northeast 492 566 41,000  Level Memphis Center
19:57 36.2581 -91.6644 47° Northeast 492 566 41,000  Level Memphis Center
19:58 36.3511 -91.5344 48° Northeast 492 566 41,000  Level Memphis Center
19:59 36.4461 -91.4017 48° Northeast 497 572 41,000  Level Memphis Center
20:00 36.5536 -91.2586 47° Northeast 506 582 41,000  Level Memphis Center
20:01 36.6461 -91.1250 49° Northeast 512 589 41,000  Level Memphis Center
20:02 36.7281 -91.0092 49° Northeast 507 583 41,000  Level Memphis Center
20:03 36.8267 -90.8753 47° Northeast 507 583 41,000  Level Memphis Center
20:04 36.9189 -90.7461 48° Northeast 502 578 41,000  Level Memphis Center
20:06 37.1269 -90.4506 49° Northeast 512 589 41,000  Level Kansas City Center
20:07 37.2186 -90.3181 49° Northeast 507 583 41,000  Level Kansas City Center
20:08 37.3122 -90.1836 49° Northeast 507 583 41,000  Level Kansas City Center
20:09 37.4053 -90.0478 49° Northeast 509 586 41,000  Level Kansas City Center
20:10 37.5189 -89.8839 49° Northeast 513 590 41,000  Level Kansas City Center
20:11 37.5981 -89.7686 49° Northeast 513 590 41,000  Level Kansas City Center
20:12 37.7100 -89.6056 49° Northeast 514 592 41,000  Level Kansas City Center
20:13 37.8039 -89.4669 49° Northeast 519 597 41,000  Level Kansas City Center
20:14 37.9064 -89.3169 49° Northeast 526 605 41,000  Level Kansas City Center
20:15 38.0064 -89.1692 49° Northeast 519 597 41,000  Level Kansas City Center
20:16 38.0983 -89.0322 50° Northeast 514 592 41,000  Level Kansas City Center
20:17 38.1922 -88.8881 50° Northeast 509 586 41,000  Level Kansas City Center
20:18 38.2836 -88.7500 50° Northeast 511 588 41,000  Level Kansas City Center
20:19 38.3747 -88.6147 49° Northeast 514 592 41,000  Level Kansas City Center
20:20 38.4686 -88.4758 49° Northeast 514 592 41,000  Level Kansas City Center
20:21 38.5611 -88.3358 50° Northeast 513 590 41,000  Level Kansas City Center
20:22 38.6728 -88.1644 50° Northeast 515 593 41,000  Level Kansas City Center
20:23 38.7692 -88.0172 50° Northeast 526 605 41,000  Level Kansas City Center
20:24 38.8644 -87.8697 50° Northeast 533 613 41,000  Level Kansas City Center
20:25 38.9067 -87.7736 61° Northeast 534 615 41,000  Level Indianapolis Center
20:26 38.9808 -87.6092 60° Northeast 530 610 41,000  Level Indianapolis Center
20:27 39.0556 -87.4422 60° Northeast 532 612 41,000  Level Indianapolis Center
20:28 39.1314 -87.2722 60° Northeast 540 621 41,000  Level Indianapolis Center
20:29 39.2061 -87.1022 60° Northeast 542 624 41,000  Level Indianapolis Center
20:30 39.2825 -86.9300 60° Northeast 548 631 41,000  Level Indianapolis Center
20:31 39.3736 -86.7222 60° Northeast 549 632 41,000  Level Indianapolis Center
20:32 39.4483 -86.5492 61° Northeast 548 631 41,000  Level Indianapolis Center
20:33 39.5242 -86.3761 60° Northeast 547 629 41,000  Level Indianapolis Center
20:34 39.5986 -86.2025 61° Northeast 549 632 41,000  Level Indianapolis Center
20:35 39.6739 -86.0300 60° Northeast 546 628 41,000  Level Indianapolis Center
20:36 39.7428 -85.8631 62° Northeast 546 628 41,000  Level Indianapolis Center
20:37 39.8308 -85.6594 61° Northeast 548 631 41,000  Level Indianapolis Center
20:38 39.9050 -85.4822 61° Northeast 553 636 41,000  Level Indianapolis Center
20:40 39.9797 -85.3039 61° Northeast 555 639 41,000  Level Indianapolis Center
20:41 40.0544 -85.1231 62° Northeast 559 643 41,000  Level Indianapolis Center
20:42 40.1289 -84.9419 62° Northeast 563 648 41,000  Level Indianapolis Center
20:43 40.2039 -84.7597 62° Northeast 563 648 41,000  Level Indianapolis Center
20:44 40.2800 -84.5750 62° Northeast 567 652 41,000  Level Indianapolis Center
20:45 40.3544 -84.3903 62° Northeast 568 654 41,000  Level Indianapolis Center
20:46 40.4303 -84.2044 62° Northeast 569 655 41,000  Level Indianapolis Center
20:47 40.5047 -84.0181 62° Northeast 570 656 41,000  Level Indianapolis Center
20:48 40.5792 -83.8319 62° Northeast 568 654 41,000  Level Indianapolis Center
20:49 40.6653 -83.6133 63° Northeast 568 654 41,000  Level Indianapolis Center
20:50 40.7375 -83.4272 63° Northeast 565 650 41,000  Level Indianapolis Center
20:51 40.7944 -83.2269 69° East 561 646 41,000  Level Indianapolis Center
20:52 40.8311 -83.0256 76° East 545 627 41,000  Level Cleveland Center
20:53 40.8558 -82.8314 80° East 545 627 41,000  Level Cleveland Center
20:54 40.8867 -82.6347 78° East 545 627 41,000  Level Cleveland Center
20:55 40.9172 -82.4406 78° East 540 621 41,000  Level Cleveland Center
20:56 40.9494 -82.2408 78° East 547 629 41,000  Level Cleveland Center
20:57 40.9792 -82.0436 79° East 547 629 41,000  Level Cleveland Center
20:58 41.0000 -81.8706 81° East 541 623 41,000  Level Cleveland Center
20:59 41.0356 -81.6483 78° East 553 636 41,000  Level Cleveland Center
21:00 41.0644 -81.4506 79° East 553 636 41,000  Level Cleveland Center
21:01 41.0928 -81.2497 79° East 553 636 41,000  Level Cleveland Center
21:02 41.1189 -81.0708 79° East 553 636 41,000  Level Cleveland Center
21:03 41.1467 -80.8728 79° East 548 631 41,000  Level Cleveland Center
21:04 41.1761 -80.6714 79° East 548 631 41,000  Level Cleveland Center
21:05 41.2033 -80.4756 79° East 548 631 41,000  Level Cleveland Center
21:06 41.2300 -80.2767 80° East 543 625 41,000  Level Cleveland Center
21:07 41.2564 -80.0778 80° East 543 625 41,000  Level Cleveland Center
21:08 41.2844 -79.8647 80° East 536 617 41,000  Level Cleveland Center
21:09 41.3103 -79.6708 80° East 531 611 41,000  Level Cleveland Center
21:10 41.3336 -79.4881 80° East 537 618 41,000  Level Cleveland Center
21:11 41.3583 -79.2775 81° East 537 618 41,000  Level Cleveland Center
21:12 41.3811 -79.0861 81° East 530 610 41,000 -360 Level Cleveland Center
21:13 41.3911 -78.8947 86° East 524 603 40,300 -900 Descending Cleveland Center
21:14 41.3881 -78.7067 91° East 519 597 39,300 -960 Descending Cleveland Center
21:15 41.3847 -78.5186 91° East 511 588 38,400 -960 Descending Cleveland Center
21:16 41.3811 -78.3250 91° East 511 588 37,400 -1,380 Descending Cleveland Center
21:18 41.3728 -78.0231 92° East 527 606 34,700 -2,100 Descending New York Center
21:19 41.3697 -77.8347 91° East 527 606 31,700 -1,860 Descending New York Center
21:20 41.3636 -77.6514 92° East 514 592 31,000 -360 Descending New York Center
21:21 41.3617 -77.4689 91° East 500 575 31,000  Level New York Center
21:22 41.3531 -77.2881 94° East 500 575 31,000  Level New York Center
21:23 41.3481 -77.1081 92° East 500 575 31,000 -360 Level New York Center
21:24 41.3433 -76.9225 92° East 500 575 30,300 -1,500 Descending New York Center
21:25 41.3272 -76.7494 97° East 494 568 28,000 -2,340 Descending New York Center
21:26 41.2872 -76.5858 108° East 469 540 25,700 -2,280 Descending New York Center
21:27 41.2447 -76.4333 110° East 458 527 23,500 -1,920 Descending New York Center
21:28 41.2039 -76.2808 110° East 443 510 21,900 -1,320 Descending New York Center
21:29 41.1650 -76.1344 109° East 426 490 20,900 -1,200 Descending New York Center
21:30 41.1253 -75.9933 110° East 421 484 19,600 -1,800 Descending New York Center
21:31 41.0897 -75.8531 109° East 411 473 17,400 -2,400 Descending New York Center
21:32 41.0481 -75.7042 110° East 393 452 14,800 -2,280 Descending New York Center
21:33 41.0119 -75.5694 110° East 393 452 12,900 -960 Descending New York Center
21:34 40.9792 -75.4572 111° Southeast 382 440 12,900 -360 Level New York Center
21:35 40.9442 -75.3339 111° Southeast 375 432 12,300 -1,320 Descending New York Center
21:36 40.9075 -75.2025 110° East 354 407 10,300 -1,500 Descending New York Center
21:37 40.8761 -75.0933 111° Southeast 335 386 9,400 -1,320 Descending New York Center
21:38 40.8467 -74.9872 110° East 316 364 7,800 -1,260 Descending New York Center
21:39 40.8250 -74.8956 107° East 300 345 6,900 -900 Descending New York Center
21:40 40.8722 -74.7939 58° Northeast 261 300 6,000 -480 Descending New York Center
21:41 40.9306 -74.7342 38° Northeast 273 314 6,000  Level New York Center
21:42 40.9950 -74.6722 36° Northeast 273 314 6,000  Level New York Center
21:43 41.0306 -74.6081 54° Northeast 243 280 6,000  Level New York Center
21:44 40.9753 -74.5747 156° South 127 146 6,000  Level New York Center
21:45 40.9250 -74.5883 192° South 165 190 6,000  Level New York Center
21:46 40.8664 -74.5961 186° South 198 228 6,000  Level New York Center
21:46 40.8500 -74.5833 149° Southeast 199 229 6,000 -360 Level New York TRACON
21:47 40.7833 -74.5667 169° South 190 219 5,500 -540 Descending New York TRACON
21:48 40.7333 -74.5500 166° South 188 216 5,000 -300 Descending New York TRACON
21:49 40.6833 -74.5667 194° South 194 223 5,000  Level New York TRACON
21:50 40.6333 -74.5667 180° South 194 223 5,000  Level New York TRACON
21:51 40.5833 -74.5833 194° South 197 227 5,000  Level New York TRACON
21:52 40.5333 -74.6167 207° Southwest 193 222 5,000  Level New York TRACON
21:53 40.5000 -74.6500 217° Southwest 184 212 5,000  Level New York TRACON
21:54 40.4500 -74.6667 194° South 198 228 5,000  Level New York TRACON
21:55 40.4167 -74.6167 131° Southeast 201 231 5,000 -420 Level New York TRACON
21:56 40.3833 -74.5667 131° Southeast 196 226 4,200 -660 Descending New York TRACON
21:57 40.3667 -74.5000 108° East 189 217 3,700 -540 Descending New York TRACON
21:58 40.3833 -74.4333 72° East 178 205 3,200 -360 Descending New York TRACON
21:59 40.4000 -74.3833 66° East 161 185 3,000 -240 Descending New York TRACON